No1 Tokuyama — JK5318 — position and weather

sailwx.info

Track history (hours):
 
Tides and Currents Weather Stations Pressure Air Temp Water Temp Dewpoint Dewpoint Depression Visibility Wind Speed Wind Dir Waves Ship Positions

No1 Tokuyama

Last reported at 2018-Apr-25 10:00 UTC. Time now 2018-Apr-25 10:17 UTC.
Position N 35°27' E 139°58'.

Length 110 m; draft 7.1 m.

Type: Cargo ship. MMSI: 431400487.

Date/timePositionNaut miles runAvg speedWind from/ knotsBaromVisibWave heightAir tempDewpointWater temp
2018-Apr-25 10:00N 35°27' E 139°58'0 0.0
2018-Apr-25 09:30N 35°27' E 139°58'0 0.0
2018-Apr-25 09:00N 35°27' E 139°58'0 0.0
2018-Apr-25 08:30N 35°27' E 139°58'0 0.0
2018-Apr-25 08:00N 35°27' E 139°58'0 0.0
2018-Apr-25 07:24N 35°27' E 139°58'0 0.0
2018-Apr-25 07:00N 35°27' E 139°58'0 0.0
2018-Apr-25 06:30N 35°27' E 139°58'0 0.0
2018-Apr-25 06:00N 35°27' E 139°58'2 3.2
2018-Apr-25 05:31N 35°28' E 139°58'510.1
2018-Apr-25 05:00N 35°28' E 139°51'612.0
2018-Apr-25 04:30N 35°24' E 139°46'611.7
2018-Apr-25 04:00N 35°18' E 139°45'611.7
2018-Apr-25 03:30N 35°13' E 139°47'612.6
2018-Apr-25 03:00N 35°06' E 139°45'612.4
2018-Apr-25 02:30N 35°02' E 139°40'612.8
2018-Apr-25 02:00N 34°58' E 139°34'714.4
2018-Apr-25 01:30N 34°54' E 139°27'815.0
2018-Apr-25 01:00N 34°49' E 139°19'714.1
2018-Apr-25 00:31N 34°44' E 139°13'714.6
2018-Apr-25 00:00N 34°39' E 139°07'714.4
2018-Apr-24 23:30N 34°35' E 139°00'611.9
2018-Apr-24 23:00N 34°33' E 138°53'811.5
2018-Apr-24 22:21N 34°32' E 138°44'411.4
2018-Apr-24 22:00N 34°32' E 138°39'611.1
2018-Apr-24 21:30N 34°32' E 138°33'611.4
2018-Apr-24 20:57N 34°31' E 138°25'511.5
2018-Apr-24 20:30N 34°30' E 138°19'611.5
2018-Apr-24 19:57N 34°30' E 138°11'611.5
2018-Apr-24 19:23N 34°28' E 138°03'6611.6
2018-Apr-24 13:42N 34°06' E 136°48'312.0
2018-Apr-24 13:25N 34°04' E 136°45'80 9.7
2018-Apr-24 05:06N 33°43' E 135°12'311.7
2018-Apr-24 04:49N 33°45' E 135°09'411.4
2018-Apr-24 04:30N 33°48' E 135°06'511.1
2018-Apr-24 04:00N 33°52' E 135°02'611.5
2018-Apr-24 03:30N 33°56' E 134°57'611.8
2018-Apr-24 03:00N 34°00' E 134°52'611.6
2018-Apr-24 02:29N 34°05' E 134°47'711.7
2018-Apr-24 01:52N 34°11' E 134°42'512.5
2018-Apr-24 01:30N 34°14' E 134°39'611.6
2018-Apr-24 01:00N 34°17' E 134°33'612.1
2018-Apr-24 00:31N 34°19' E 134°26'612.4
2018-Apr-24 00:00N 34°22' E 134°19'612.9
2018-Apr-23 23:30N 34°24' E 134°12'2612.3
2018-Apr-23 21:25N 34°18' E 133°42'3711.6
2018-Apr-23 18:13N 34°09' E 132°58'1012.0
2018-Apr-23 17:25N 34°04' E 132°48'613.4
2018-Apr-23 17:00N 33°60' E 132°45'713.4
2018-Apr-23 16:30N 33°55' E 132°39'612.7
2018-Apr-23 16:00N 33°52' E 132°32'712.8
2018-Apr-23 15:28N 33°50' E 132°24'612.4
2018-Apr-23 15:00N 33°50' E 132°17'612.1
2018-Apr-23 14:29N 33°48' E 132°10'611.8
2018-Apr-23 14:00N 33°46' E 132°04'610.9
2018-Apr-23 13:27N 33°49' E 131°58'711.7
2018-Apr-23 12:50N 33°54' E 131°51'411.5
2018-Apr-23 12:30N 33°56' E 131°47'5 9.7
2018-Apr-23 12:00N 34°01' E 131°46'3 5.4
2018-Apr-23 11:30N 34°03' E 131°47'0 0.0
2018-Apr-23 11:00N 34°03' E 131°47'0 0.0
2018-Apr-23 10:30N 34°03' E 131°47'0 0.0
2018-Apr-23 10:00N 34°03' E 131°47'0 0.0
2018-Apr-23 09:30N 34°03' E 131°47'0 0.0
2018-Apr-23 09:00N 34°03' E 131°47'0 0.0
2018-Apr-23 08:30N 34°03' E 131°47'0 0.0
2018-Apr-23 08:00N 34°03' E 131°47'0 0.0
2018-Apr-23 07:30N 34°03' E 131°47'0 0.0
2018-Apr-23 06:57N 34°03' E 131°47'0 0.0
2018-Apr-23 06:24N 34°03' E 131°47'0 0.0
2018-Apr-23 05:54N 34°03' E 131°47'0 0.0
2018-Apr-23 05:30N 34°03' E 131°47'0 0.0
2018-Apr-23 04:42N 34°03' E 131°47'0 0.0
2018-Apr-23 04:24N 34°03' E 131°47'0 0.0
2018-Apr-23 03:42N 34°03' E 131°47'0 0.0
2018-Apr-23 03:30N 34°03' E 131°47'0 0.0
2018-Apr-23 02:54N 34°03' E 131°47'0 0.0
2018-Apr-23 02:30N 34°03' E 131°47'1 0.0
2018-Apr-21 23:42N 34°03' E 131°47'1 4.6
2018-Apr-21 23:26N 34°02' E 131°46'1 3.3
2018-Apr-21 23:00N 34°01' E 131°45'0 0.1
2018-Apr-21 22:27N 34°01' E 131°45'0 0.0
2018-Apr-21 21:57N 34°01' E 131°45'0 0.1
2018-Apr-21 21:30N 34°01' E 131°45'510.1
2018-Apr-21 21:00N 33°56' E 131°46'713.6
2018-Apr-21 20:30N 33°52' E 131°53'813.5
2018-Apr-21 19:55N 33°47' E 132°00'511.9
2018-Apr-21 19:30N 33°47' E 132°06'714.1
2018-Apr-21 19:00N 33°50' E 132°14'714.1
2018-Apr-21 18:29N 33°51' E 132°23'713.9
2018-Apr-21 18:00N 33°53' E 132°31'713.4
2018-Apr-21 17:29N 33°55' E 132°38'612.0
2018-Apr-21 17:00N 33°59' E 132°43'3810.5
2018-Apr-21 13:24N 34°16' E 133°25'1513.1
2018-Apr-21 12:13N 34°25' E 133°39'313.6
2018-Apr-21 11:59N 34°26' E 133°43'54 1.7
2018-Apr-20 05:05N 34°03' E 132°44'113.0
2018-Apr-20 05:00N 34°02' E 132°43'713.2
2018-Apr-20 04:30N 34°01' E 132°36'812.8
2018-Apr-20 03:53N 34°03' E 132°26'513.0
2018-Apr-20 03:29N 34°07' E 132°23'612.5
2018-Apr-20 02:59N 34°13' E 132°22'612.1
2018-Apr-20 02:30N 34°19' E 132°25'3 5.5
2018-Apr-20 02:00N 34°21' E 132°26'0 0.0
2018-Apr-20 01:30N 34°21' E 132°26'0 0.0
2018-Apr-20 01:00N 34°21' E 132°26'0 0.0
2018-Apr-20 00:30N 34°21' E 132°26'0 0.0
2018-Apr-19 23:54N 34°21' E 132°26'0 0.0
2018-Apr-19 23:30N 34°21' E 132°26'0 0.0
2018-Apr-19 23:00N 34°21' E 132°26'0 0.0
2018-Apr-19 22:30N 34°21' E 132°26'2 4.4
2018-Apr-19 22:00N 34°20' E 132°24'2 3.2
2018-Apr-19 21:30N 34°19' E 132°23'0 0.0
2018-Apr-19 21:00N 34°19' E 132°23'2 3.6
2018-Apr-19 20:30N 34°17' E 132°21'611.4
2018-Apr-19 20:00N 34°12' E 132°21'612.0
2018-Apr-19 19:30N 34°06' E 132°24'712.0
2018-Apr-19 18:55N 34°01' E 132°30'6 8.7
2018-Apr-19 18:13N 33°55' E 132°29'310.7
2018-Apr-19 17:56N 33°53' E 132°27'511.2
2018-Apr-19 17:30N 33°50' E 132°22'711.9
2018-Apr-19 16:55N 33°50' E 132°13'712.1
2018-Apr-19 16:21N 33°47' E 132°06'5 9.5
2018-Apr-19 15:50N 33°48' E 132°00'412.6
2018-Apr-19 15:29N 33°50' E 131°56'612.7
2018-Apr-19 15:00N 33°54' E 131°50'612.1
2018-Apr-19 14:30N 33°58' E 131°44'610.0
2018-Apr-19 13:56N 34°03' E 131°47'0 0.1
2018-Apr-19 12:38N 34°03' E 131°47'0 0.0
2018-Apr-19 12:14N 34°03' E 131°47'0 0.0
2018-Apr-19 11:47N 34°03' E 131°47'0 0.0
2018-Apr-19 11:08N 34°03' E 131°47'0 0.0
2018-Apr-19 10:44N 34°03' E 131°47'0 0.0
2018-Apr-19 08:38N 34°03' E 131°47'0 0.0
2018-Apr-19 08:26N 34°03' E 131°47'0 0.0
2018-Apr-19 05:32N 34°03' E 131°47'0 0.2
2018-Apr-19 05:14N 34°03' E 131°47'1 0.1
2018-Apr-18 23:56N 34°03' E 131°47'4 8.2
2018-Apr-18 23:30N 33°59' E 131°45'1113.6
2018-Apr-18 22:41N 33°49' E 131°41'211.2
2018-Apr-18 22:30N 33°48' E 131°43'714.4
2018-Apr-18 22:00N 33°46' E 131°52'814.0
2018-Apr-18 21:28N 33°46' E 132°01'1214.1
2018-Apr-18 20:37N 33°50' E 132°14'214.6
2018-Apr-18 20:29N 33°50' E 132°16'714.4
2018-Apr-18 19:59N 33°51' E 132°25'714.6
2018-Apr-18 19:30N 33°53' E 132°33'715.1
2018-Apr-18 19:00N 33°57' E 132°41'1815.0
2018-Apr-18 17:47N 34°10' E 132°56'2011.7
2018-Apr-18 16:04N 34°14' E 133°20'3313.8
2018-Apr-18 13:39N 34°25' E 133°58'214.1
2018-Apr-18 13:30N 34°26' E 134°01'714.4
2018-Apr-18 13:00N 34°26' E 134°09'714.9
2018-Apr-18 12:30N 34°25' E 134°18'714.4
2018-Apr-18 12:01N 34°27' E 134°26'714.2
2018-Apr-18 11:31N 34°29' E 134°34'714.5
2018-Apr-18 11:01N 34°32' E 134°43'714.8
2018-Apr-18 10:30N 34°35' E 134°51'714.7
2018-Apr-18 10:00N 34°38' E 134°59'612.9
2018-Apr-18 09:30N 34°36' E 135°07'713.4
2018-Apr-18 09:00N 34°36' E 135°15'612.6
2018-Apr-18 08:30N 34°38' E 135°22'4 7.6
2018-Apr-18 08:01N 34°39' E 135°27'0 0.0
2018-Apr-18 07:26N 34°39' E 135°27'0 0.0
2018-Apr-18 06:59N 34°39' E 135°27'0 0.0
2018-Apr-18 06:29N 34°39' E 135°27'0 0.0
2018-Apr-18 05:58N 34°39' E 135°27'0 0.0
2018-Apr-18 05:28N 34°39' E 135°27'0 0.0
2018-Apr-18 04:58N 34°39' E 135°27'0 0.0
2018-Apr-18 04:26N 34°39' E 135°27'0 0.0
2018-Apr-18 03:58N 34°39' E 135°27'0 0.0
2018-Apr-18 03:29N 34°39' E 135°27'0 0.0
2018-Apr-18 02:58N 34°39' E 135°27'0 0.8
2018-Apr-18 02:31N 34°39' E 135°26'5 9.2
2018-Apr-18 02:00N 34°37' E 135°21'612.1
2018-Apr-18 01:31N 34°31' E 135°21'2 4.8
2018-Apr-18 01:00N 34°28' E 135°22'0 0.0
2018-Apr-18 00:29N 34°28' E 135°22'0 0.0
2018-Apr-17 23:59N 34°28' E 135°22'0 0.0
2018-Apr-17 23:29N 34°28' E 135°22'0 0.0
2018-Apr-17 22:59N 34°28' E 135°22'0 0.0
2018-Apr-17 22:29N 34°28' E 135°22'1 2.8
2018-Apr-17 22:00N 34°30' E 135°21'1 2.1
2018-Apr-17 21:29N 34°30' E 135°20'0 0.0
2018-Apr-17 20:59N 34°30' E 135°20'0 0.0
2018-Apr-17 20:26N 34°30' E 135°20'0 0.1
2018-Apr-17 19:59N 34°30' E 135°20'2 3.6
2018-Apr-17 19:31N 34°30' E 135°18'612.4
2018-Apr-17 19:00N 34°31' E 135°11'713.6
2018-Apr-17 18:31N 34°35' E 135°04'713.8
2018-Apr-17 18:00N 34°35' E 134°56'714.4
2018-Apr-17 17:30N 34°32' E 134°48'612.8
2018-Apr-17 17:00N 34°30' E 134°41'612.7
2018-Apr-17 16:30N 34°27' E 134°34'612.6
2018-Apr-17 16:00N 34°25' E 134°26'612.6
2018-Apr-17 15:30N 34°24' E 134°19'612.5
2018-Apr-17 15:00N 34°25' E 134°11'7410.7
2018-Apr-17 08:02N 34°01' E 132°46'012.2
2018-Apr-17 08:00N 34°01' E 132°46'510.7
2018-Apr-17 07:30N 33°56' E 132°42'6 9.9
2018-Apr-17 06:56N 33°53' E 132°37'511.1
2018-Apr-17 06:29N 33°49' E 132°32'510.7
2018-Apr-17 05:59N 33°47' E 132°27'610.8
2018-Apr-17 05:28N 33°44' E 132°21'611.1
2018-Apr-17 04:55N 33°42' E 132°14'1011.3
2018-Apr-17 04:04N 33°42' E 132°02'112.1
2018-Apr-17 04:00N 33°42' E 132°01'612.4
2018-Apr-17 03:29N 33°43' E 131°54'612.8
2018-Apr-17 03:00N 33°45' E 131°47'713.2
2018-Apr-17 02:30N 33°46' E 131°39'712.7
2018-Apr-17 01:59N 33°47' E 131°31'612.2
2018-Apr-17 01:30N 33°48' E 131°24'611.9
2018-Apr-17 01:00N 33°49' E 131°17'611.4
2018-Apr-17 00:30N 33°49' E 131°10'611.2
2018-Apr-17 00:00N 33°49' E 131°03'3 6.7
2018-Apr-16 23:30N 33°48' E 130°60'0 0.0
2018-Apr-16 22:20N 33°48' E 130°60'0 0.0
2018-Apr-16 21:05N 33°48' E 130°60'0 0.1
2018-Apr-16 20:59N 33°48' E 130°60'0 0.0
2018-Apr-16 20:17N 33°48' E 130°60'0 0.0
2018-Apr-16 19:59N 33°48' E 130°60'0 0.0
2018-Apr-16 19:29N 33°48' E 130°60'0 0.0
2018-Apr-16 18:59N 33°48' E 130°60'0 0.0
2018-Apr-16 18:29N 33°48' E 130°60'0 0.0
2018-Apr-16 17:59N 33°48' E 130°60'0 0.0
2018-Apr-16 17:23N 33°48' E 130°60'0 0.0
2018-Apr-16 16:53N 33°48' E 130°60'0 0.0
2018-Apr-16 16:29N 33°48' E 130°60'0 0.0
2018-Apr-16 15:59N 33°48' E 130°60'0 0.0
2018-Apr-16 15:29N 33°48' E 130°60'0 0.0
2018-Apr-16 13:26N 33°48' E 130°60'1 2.0
2018-Apr-16 13:00N 33°48' E 131°01'611.4
2018-Apr-16 12:30N 33°50' E 131°07'713.9
2018-Apr-16 12:00N 33°49' E 131°15'714.1
2018-Apr-16 11:30N 33°49' E 131°24'713.9
2018-Apr-16 11:00N 33°51' E 131°32'714.3
2018-Apr-16 10:30N 33°54' E 131°39'713.1
2018-Apr-16 09:59N 33°59' E 131°45'4 9.1
2018-Apr-16 09:30N 34°03' E 131°47'0 0.1
2018-Apr-16 08:53N 34°03' E 131°47'0 0.0
2018-Apr-16 08:29N 34°03' E 131°47'0 0.0
2018-Apr-16 07:53N 34°03' E 131°47'0 0.0
2018-Apr-16 07:23N 34°03' E 131°47'0 0.0
2018-Apr-16 06:59N 34°03' E 131°47'0 0.0
2018-Apr-16 06:23N 34°03' E 131°47'0 0.0
2018-Apr-16 05:59N 34°03' E 131°47'0 0.0
2018-Apr-16 05:29N 34°03' E 131°47'0 0.0
2018-Apr-16 04:53N 34°03' E 131°47'0 0.0
2018-Apr-16 04:29N 34°03' E 131°47'0 0.0
2018-Apr-16 03:53N 34°03' E 131°47'0 0.0
2018-Apr-16 03:17N 34°03' E 131°47'0 0.0
2018-Apr-16 02:53N 34°03' E 131°47'0 0.0
2018-Apr-16 02:29N 34°03' E 131°47'0 0.0
2018-Apr-16 01:11N 34°03' E 131°47'0 0.0
2018-Apr-16 00:47N 34°03' E 131°47'0 0.0
2018-Apr-16 00:29N 34°03' E 131°47'0 0.0
2018-Apr-15 23:53N 34°03' E 131°47'0 0.0
2018-Apr-15 23:11N 34°03' E 131°47'0 0.0
2018-Apr-15 22:59N 34°03' E 131°47'0 0.0
2018-Apr-15 22:23N 34°03' E 131°47'0 0.0
2018-Apr-15 21:53N 34°03' E 131°47'0 0.0
2018-Apr-15 21:29N 34°03' E 131°47'0 0.0
2018-Apr-15 20:23N 34°03' E 131°47'0 0.0
2018-Apr-15 19:53N 34°03' E 131°47'0 0.0
2018-Apr-15 19:29N 34°03' E 131°47'0 0.0
2018-Apr-15 18:53N 34°03' E 131°47'0 0.0
2018-Apr-15 18:26N 34°03' E 131°47'0 0.0
2018-Apr-15 17:47N 34°03' E 131°47'0 0.0
2018-Apr-15 17:29N 34°03' E 131°47'0 0.0
2018-Apr-15 16:59N 34°03' E 131°47'0 0.0
2018-Apr-15 16:17N 34°03' E 131°47'0 0.0
2018-Apr-15 15:53N 34°03' E 131°47'0 0.0
2018-Apr-15 15:29N 34°03' E 131°47'0 0.0
2018-Apr-15 11:23N 34°03' E 131°47'0 0.0
2018-Apr-15 10:59N 34°03' E 131°47'0 0.0
2018-Apr-15 10:11N 34°03' E 131°47'  
Track history (hours):
 
Tides and Currents Weather Stations Pressure Air Temp Water Temp Dewpoint Dewpoint Depression Visibility Wind Speed Wind Dir Waves Ship Positions

No1 Tokuyama

Last reported at 2018-Apr-25 10:00 UTC. Time now 2018-Apr-25 10:17 UTC.
Position N 35°27' E 139°58'.

Length 110 m; draft 7.1 m.

Type: Cargo ship. MMSI: 431400487.

Date/timePositionNaut miles runAvg speedWind from/ knotsBaromVisibWave heightAir tempDewpointWater temp
2018-Apr-25 10:00N 35°27' E 139°58'0 0.0
2018-Apr-25 09:30N 35°27' E 139°58'0 0.0
2018-Apr-25 09:00N 35°27' E 139°58'0 0.0
2018-Apr-25 08:30N 35°27' E 139°58'0 0.0
2018-Apr-25 08:00N 35°27' E 139°58'0 0.0
2018-Apr-25 07:24N 35°27' E 139°58'0 0.0
2018-Apr-25 07:00N 35°27' E 139°58'0 0.0
2018-Apr-25 06:30N 35°27' E 139°58'0 0.0
2018-Apr-25 06:00N 35°27' E 139°58'2 3.2
2018-Apr-25 05:31N 35°28' E 139°58'510.1
2018-Apr-25 05:00N 35°28' E 139°51'612.0
2018-Apr-25 04:30N 35°24' E 139°46'611.7
2018-Apr-25 04:00N 35°18' E 139°45'611.7
2018-Apr-25 03:30N 35°13' E 139°47'612.6
2018-Apr-25 03:00N 35°06' E 139°45'612.4
2018-Apr-25 02:30N 35°02' E 139°40'612.8
2018-Apr-25 02:00N 34°58' E 139°34'714.4
2018-Apr-25 01:30N 34°54' E 139°27'815.0
2018-Apr-25 01:00N 34°49' E 139°19'714.1
2018-Apr-25 00:31N 34°44' E 139°13'714.6
2018-Apr-25 00:00N 34°39' E 139°07'714.4
2018-Apr-24 23:30N 34°35' E 139°00'611.9
2018-Apr-24 23:00N 34°33' E 138°53'811.5
2018-Apr-24 22:21N 34°32' E 138°44'411.4
2018-Apr-24 22:00N 34°32' E 138°39'611.1
2018-Apr-24 21:30N 34°32' E 138°33'611.4
2018-Apr-24 20:57N 34°31' E 138°25'511.5
2018-Apr-24 20:30N 34°30' E 138°19'611.5
2018-Apr-24 19:57N 34°30' E 138°11'611.5
2018-Apr-24 19:23N 34°28' E 138°03'6611.6
2018-Apr-24 13:42N 34°06' E 136°48'312.0
2018-Apr-24 13:25N 34°04' E 136°45'80 9.7
2018-Apr-24 05:06N 33°43' E 135°12'311.7
2018-Apr-24 04:49N 33°45' E 135°09'411.4
2018-Apr-24 04:30N 33°48' E 135°06'511.1
2018-Apr-24 04:00N 33°52' E 135°02'611.5
2018-Apr-24 03:30N 33°56' E 134°57'611.8
2018-Apr-24 03:00N 34°00' E 134°52'611.6
2018-Apr-24 02:29N 34°05' E 134°47'711.7
2018-Apr-24 01:52N 34°11' E 134°42'512.5
2018-Apr-24 01:30N 34°14' E 134°39'611.6
2018-Apr-24 01:00N 34°17' E 134°33'612.1
2018-Apr-24 00:31N 34°19' E 134°26'612.4
2018-Apr-24 00:00N 34°22' E 134°19'612.9
2018-Apr-23 23:30N 34°24' E 134°12'2612.3
2018-Apr-23 21:25N 34°18' E 133°42'3711.6
2018-Apr-23 18:13N 34°09' E 132°58'1012.0
2018-Apr-23 17:25N 34°04' E 132°48'613.4
2018-Apr-23 17:00N 33°60' E 132°45'713.4
2018-Apr-23 16:30N 33°55' E 132°39'612.7
2018-Apr-23 16:00N 33°52' E 132°32'712.8
2018-Apr-23 15:28N 33°50' E 132°24'612.4
2018-Apr-23 15:00N 33°50' E 132°17'612.1
2018-Apr-23 14:29N 33°48' E 132°10'611.8
2018-Apr-23 14:00N 33°46' E 132°04'610.9
2018-Apr-23 13:27N 33°49' E 131°58'711.7
2018-Apr-23 12:50N 33°54' E 131°51'411.5
2018-Apr-23 12:30N 33°56' E 131°47'5 9.7
2018-Apr-23 12:00N 34°01' E 131°46'3 5.4
2018-Apr-23 11:30N 34°03' E 131°47'0 0.0
2018-Apr-23 11:00N 34°03' E 131°47'0 0.0
2018-Apr-23 10:30N 34°03' E 131°47'0 0.0
2018-Apr-23 10:00N 34°03' E 131°47'0 0.0
2018-Apr-23 09:30N 34°03' E 131°47'0 0.0
2018-Apr-23 09:00N 34°03' E 131°47'0 0.0
2018-Apr-23 08:30N 34°03' E 131°47'0 0.0
2018-Apr-23 08:00N 34°03' E 131°47'0 0.0
2018-Apr-23 07:30N 34°03' E 131°47'0 0.0
2018-Apr-23 06:57N 34°03' E 131°47'0 0.0
2018-Apr-23 06:24N 34°03' E 131°47'0 0.0
2018-Apr-23 05:54N 34°03' E 131°47'0 0.0
2018-Apr-23 05:30N 34°03' E 131°47'0 0.0
2018-Apr-23 04:42N 34°03' E 131°47'0 0.0
2018-Apr-23 04:24N 34°03' E 131°47'0 0.0
2018-Apr-23 03:42N 34°03' E 131°47'0 0.0
2018-Apr-23 03:30N 34°03' E 131°47'0 0.0
2018-Apr-23 02:54N 34°03' E 131°47'0 0.0
2018-Apr-23 02:30N 34°03' E 131°47'1 0.0
2018-Apr-21 23:42N 34°03' E 131°47'1 4.6
2018-Apr-21 23:26N 34°02' E 131°46'1 3.3
2018-Apr-21 23:00N 34°01' E 131°45'0 0.1
2018-Apr-21 22:27N 34°01' E 131°45'0 0.0
2018-Apr-21 21:57N 34°01' E 131°45'0 0.1
2018-Apr-21 21:30N 34°01' E 131°45'510.1
2018-Apr-21 21:00N 33°56' E 131°46'713.6
2018-Apr-21 20:30N 33°52' E 131°53'813.5
2018-Apr-21 19:55N 33°47' E 132°00'511.9
2018-Apr-21 19:30N 33°47' E 132°06'714.1
2018-Apr-21 19:00N 33°50' E 132°14'714.1
2018-Apr-21 18:29N 33°51' E 132°23'713.9
2018-Apr-21 18:00N 33°53' E 132°31'713.4
2018-Apr-21 17:29N 33°55' E 132°38'612.0
2018-Apr-21 17:00N 33°59' E 132°43'3810.5
2018-Apr-21 13:24N 34°16' E 133°25'1513.1
2018-Apr-21 12:13N 34°25' E 133°39'313.6
2018-Apr-21 11:59N 34°26' E 133°43'54 1.7
2018-Apr-20 05:05N 34°03' E 132°44'113.0
2018-Apr-20 05:00N 34°02' E 132°43'713.2
2018-Apr-20 04:30N 34°01' E 132°36'812.8
2018-Apr-20 03:53N 34°03' E 132°26'513.0
2018-Apr-20 03:29N 34°07' E 132°23'612.5
2018-Apr-20 02:59N 34°13' E 132°22'612.1
2018-Apr-20 02:30N 34°19' E 132°25'3 5.5
2018-Apr-20 02:00N 34°21' E 132°26'0 0.0
2018-Apr-20 01:30N 34°21' E 132°26'0 0.0
2018-Apr-20 01:00N 34°21' E 132°26'0 0.0
2018-Apr-20 00:30N 34°21' E 132°26'0 0.0
2018-Apr-19 23:54N 34°21' E 132°26'0 0.0
2018-Apr-19 23:30N 34°21' E 132°26'0 0.0
2018-Apr-19 23:00N 34°21' E 132°26'0 0.0
2018-Apr-19 22:30N 34°21' E 132°26'2 4.4
2018-Apr-19 22:00N 34°20' E 132°24'2 3.2
2018-Apr-19 21:30N 34°19' E 132°23'0 0.0
2018-Apr-19 21:00N 34°19' E 132°23'2 3.6
2018-Apr-19 20:30N 34°17' E 132°21'611.4
2018-Apr-19 20:00N 34°12' E 132°21'612.0
2018-Apr-19 19:30N 34°06' E 132°24'712.0
2018-Apr-19 18:55N 34°01' E 132°30'6 8.7
2018-Apr-19 18:13N 33°55' E 132°29'310.7
2018-Apr-19 17:56N 33°53' E 132°27'511.2
2018-Apr-19 17:30N 33°50' E 132°22'711.9
2018-Apr-19 16:55N 33°50' E 132°13'712.1
2018-Apr-19 16:21N 33°47' E 132°06'5 9.5
2018-Apr-19 15:50N 33°48' E 132°00'412.6
2018-Apr-19 15:29N 33°50' E 131°56'612.7
2018-Apr-19 15:00N 33°54' E 131°50'612.1
2018-Apr-19 14:30N 33°58' E 131°44'610.0
2018-Apr-19 13:56N 34°03' E 131°47'0 0.1
2018-Apr-19 12:38N 34°03' E 131°47'0 0.0
2018-Apr-19 12:14N 34°03' E 131°47'0 0.0
2018-Apr-19 11:47N 34°03' E 131°47'0 0.0
2018-Apr-19 11:08N 34°03' E 131°47'0 0.0
2018-Apr-19 10:44N 34°03' E 131°47'0 0.0
2018-Apr-19 08:38N 34°03' E 131°47'0 0.0
2018-Apr-19 08:26N 34°03' E 131°47'0 0.0
2018-Apr-19 05:32N 34°03' E 131°47'0 0.2
2018-Apr-19 05:14N 34°03' E 131°47'1 0.1
2018-Apr-18 23:56N 34°03' E 131°47'4 8.2
2018-Apr-18 23:30N 33°59' E 131°45'1113.6
2018-Apr-18 22:41N 33°49' E 131°41'211.2
2018-Apr-18 22:30N 33°48' E 131°43'714.4
2018-Apr-18 22:00N 33°46' E 131°52'814.0
2018-Apr-18 21:28N 33°46' E 132°01'1214.1
2018-Apr-18 20:37N 33°50' E 132°14'214.6
2018-Apr-18 20:29N 33°50' E 132°16'714.4
2018-Apr-18 19:59N 33°51' E 132°25'714.6
2018-Apr-18 19:30N 33°53' E 132°33'715.1
2018-Apr-18 19:00N 33°57' E 132°41'1815.0
2018-Apr-18 17:47N 34°10' E 132°56'2011.7
2018-Apr-18 16:04N 34°14' E 133°20'3313.8
2018-Apr-18 13:39N 34°25' E 133°58'214.1
2018-Apr-18 13:30N 34°26' E 134°01'714.4
2018-Apr-18 13:00N 34°26' E 134°09'714.9
2018-Apr-18 12:30N 34°25' E 134°18'714.4
2018-Apr-18 12:01N 34°27' E 134°26'714.2
2018-Apr-18 11:31N 34°29' E 134°34'714.5
2018-Apr-18 11:01N 34°32' E 134°43'714.8
2018-Apr-18 10:30N 34°35' E 134°51'714.7
2018-Apr-18 10:00N 34°38' E 134°59'612.9
2018-Apr-18 09:30N 34°36' E 135°07'713.4
2018-Apr-18 09:00N 34°36' E 135°15'612.6
2018-Apr-18 08:30N 34°38' E 135°22'4 7.6
2018-Apr-18 08:01N 34°39' E 135°27'0 0.0
2018-Apr-18 07:26N 34°39' E 135°27'0 0.0
2018-Apr-18 06:59N 34°39' E 135°27'0 0.0
2018-Apr-18 06:29N 34°39' E 135°27'0 0.0
2018-Apr-18 05:58N 34°39' E 135°27'0 0.0
2018-Apr-18 05:28N 34°39' E 135°27'0 0.0
2018-Apr-18 04:58N 34°39' E 135°27'0 0.0
2018-Apr-18 04:26N 34°39' E 135°27'0 0.0
2018-Apr-18 03:58N 34°39' E 135°27'0 0.0
2018-Apr-18 03:29N 34°39' E 135°27'0 0.0
2018-Apr-18 02:58N 34°39' E 135°27'0 0.8
2018-Apr-18 02:31N 34°39' E 135°26'5 9.2
2018-Apr-18 02:00N 34°37' E 135°21'612.1
2018-Apr-18 01:31N 34°31' E 135°21'2 4.8
2018-Apr-18 01:00N 34°28' E 135°22'0 0.0
2018-Apr-18 00:29N 34°28' E 135°22'0 0.0
2018-Apr-17 23:59N 34°28' E 135°22'0 0.0
2018-Apr-17 23:29N 34°28' E 135°22'0 0.0
2018-Apr-17 22:59N 34°28' E 135°22'0 0.0
2018-Apr-17 22:29N 34°28' E 135°22'1 2.8
2018-Apr-17 22:00N 34°30' E 135°21'1 2.1
2018-Apr-17 21:29N 34°30' E 135°20'0 0.0
2018-Apr-17 20:59N 34°30' E 135°20'0 0.0
2018-Apr-17 20:26N 34°30' E 135°20'0 0.1
2018-Apr-17 19:59N 34°30' E 135°20'2 3.6
2018-Apr-17 19:31N 34°30' E 135°18'612.4
2018-Apr-17 19:00N 34°31' E 135°11'713.6
2018-Apr-17 18:31N 34°35' E 135°04'713.8
2018-Apr-17 18:00N 34°35' E 134°56'714.4
2018-Apr-17 17:30N 34°32' E 134°48'612.8
2018-Apr-17 17:00N 34°30' E 134°41'612.7
2018-Apr-17 16:30N 34°27' E 134°34'612.6
2018-Apr-17 16:00N 34°25' E 134°26'612.6
2018-Apr-17 15:30N 34°24' E 134°19'612.5
2018-Apr-17 15:00N 34°25' E 134°11'7410.7
2018-Apr-17 08:02N 34°01' E 132°46'012.2
2018-Apr-17 08:00N 34°01' E 132°46'510.7
2018-Apr-17 07:30N 33°56' E 132°42'6 9.9
2018-Apr-17 06:56N 33°53' E 132°37'511.1
2018-Apr-17 06:29N 33°49' E 132°32'510.7
2018-Apr-17 05:59N 33°47' E 132°27'610.8
2018-Apr-17 05:28N 33°44' E 132°21'611.1
2018-Apr-17 04:55N 33°42' E 132°14'1011.3
2018-Apr-17 04:04N 33°42' E 132°02'112.1
2018-Apr-17 04:00N 33°42' E 132°01'612.4
2018-Apr-17 03:29N 33°43' E 131°54'612.8
2018-Apr-17 03:00N 33°45' E 131°47'713.2
2018-Apr-17 02:30N 33°46' E 131°39'712.7
2018-Apr-17 01:59N 33°47' E 131°31'612.2
2018-Apr-17 01:30N 33°48' E 131°24'611.9
2018-Apr-17 01:00N 33°49' E 131°17'611.4
2018-Apr-17 00:30N 33°49' E 131°10'611.2
2018-Apr-17 00:00N 33°49' E 131°03'3 6.7
2018-Apr-16 23:30N 33°48' E 130°60'0 0.0
2018-Apr-16 22:20N 33°48' E 130°60'0 0.0
2018-Apr-16 21:05N 33°48' E 130°60'0 0.1
2018-Apr-16 20:59N 33°48' E 130°60'0 0.0
2018-Apr-16 20:17N 33°48' E 130°60'0 0.0
2018-Apr-16 19:59N 33°48' E 130°60'0 0.0
2018-Apr-16 19:29N 33°48' E 130°60'0 0.0
2018-Apr-16 18:59N 33°48' E 130°60'0 0.0
2018-Apr-16 18:29N 33°48' E 130°60'0 0.0
2018-Apr-16 17:59N 33°48' E 130°60'0 0.0
2018-Apr-16 17:23N 33°48' E 130°60'0 0.0
2018-Apr-16 16:53N 33°48' E 130°60'0 0.0
2018-Apr-16 16:29N 33°48' E 130°60'0 0.0
2018-Apr-16 15:59N 33°48' E 130°60'0 0.0
2018-Apr-16 15:29N 33°48' E 130°60'0 0.0
2018-Apr-16 13:26N 33°48' E 130°60'1 2.0
2018-Apr-16 13:00N 33°48' E 131°01'611.4
2018-Apr-16 12:30N 33°50' E 131°07'713.9
2018-Apr-16 12:00N 33°49' E 131°15'714.1
2018-Apr-16 11:30N 33°49' E 131°24'713.9
2018-Apr-16 11:00N 33°51' E 131°32'714.3
2018-Apr-16 10:30N 33°54' E 131°39'713.1
2018-Apr-16 09:59N 33°59' E 131°45'4 9.1
2018-Apr-16 09:30N 34°03' E 131°47'0 0.1
2018-Apr-16 08:53N 34°03' E 131°47'0 0.0
2018-Apr-16 08:29N 34°03' E 131°47'0 0.0
2018-Apr-16 07:53N 34°03' E 131°47'0 0.0
2018-Apr-16 07:23N 34°03' E 131°47'0 0.0
2018-Apr-16 06:59N 34°03' E 131°47'0 0.0
2018-Apr-16 06:23N 34°03' E 131°47'0 0.0
2018-Apr-16 05:59N 34°03' E 131°47'0 0.0
2018-Apr-16 05:29N 34°03' E 131°47'0 0.0
2018-Apr-16 04:53N 34°03' E 131°47'0 0.0
2018-Apr-16 04:29N 34°03' E 131°47'0 0.0
2018-Apr-16 03:53N 34°03' E 131°47'0 0.0
2018-Apr-16 03:17N 34°03' E 131°47'0 0.0
2018-Apr-16 02:53N 34°03' E 131°47'0 0.0
2018-Apr-16 02:29N 34°03' E 131°47'0 0.0
2018-Apr-16 01:11N 34°03' E 131°47'0 0.0
2018-Apr-16 00:47N 34°03' E 131°47'0 0.0
2018-Apr-16 00:29N 34°03' E 131°47'0 0.0
2018-Apr-15 23:53N 34°03' E 131°47'0 0.0
2018-Apr-15 23:11N 34°03' E 131°47'0 0.0
2018-Apr-15 22:59N 34°03' E 131°47'0 0.0
2018-Apr-15 22:23N 34°03' E 131°47'0 0.0
2018-Apr-15 21:53N 34°03' E 131°47'0 0.0
2018-Apr-15 21:29N 34°03' E 131°47'0 0.0
2018-Apr-15 20:23N 34°03' E 131°47'0 0.0
2018-Apr-15 19:53N 34°03' E 131°47'0 0.0
2018-Apr-15 19:29N 34°03' E 131°47'0 0.0
2018-Apr-15 18:53N 34°03' E 131°47'0 0.0
2018-Apr-15 18:26N 34°03' E 131°47'0 0.0
2018-Apr-15 17:47N 34°03' E 131°47'0 0.0
2018-Apr-15 17:29N 34°03' E 131°47'0 0.0
2018-Apr-15 16:59N 34°03' E 131°47'0 0.0
2018-Apr-15 16:17N 34°03' E 131°47'0 0.0
2018-Apr-15 15:53N 34°03' E 131°47'0 0.0
2018-Apr-15 15:29N 34°03' E 131°47'0 0.0
2018-Apr-15 11:23N 34°03' E 131°47'0 0.0
2018-Apr-15 10:59N 34°03' E 131°47'0 0.0
2018-Apr-15 10:11N 34°03' E 131°47'  

Dump ship's entire track history